createdAt,value
2022-11-24T00:03:29.584Z,6.10
2022-11-24T00:05:56.041Z,4.40
2022-11-24T00:08:22.453Z,4.50
2022-11-24T00:10:48.856Z,4.72
2022-11-24T00:13:15.305Z,4.88
2022-11-24T00:15:41.734Z,4.32
2022-11-24T00:18:08.168Z,4.88
2022-11-24T00:20:34.607Z,5.35
2022-11-24T00:23:01.512Z,4.75
2022-11-24T00:25:27.974Z,3.55
2022-11-24T00:27:54.446Z,4.80
2022-11-24T00:30:20.917Z,5.07
2022-11-24T00:32:47.375Z,5.00
2022-11-24T00:35:13.931Z,4.78
2022-11-24T00:37:40.458Z,3.80
2022-11-24T00:40:07.740Z,4.95
2022-11-24T00:42:34.170Z,4.20
2022-11-24T00:45:02.118Z,5.32
2022-11-24T00:47:36.693Z,3.72
2022-11-24T00:50:03.301Z,4.28
2022-11-24T00:52:29.754Z,3.10
2022-11-24T00:54:56.163Z,3.53
2022-11-24T00:57:22.593Z,4.82
2022-11-24T00:59:49.041Z,4.22
2022-11-24T01:02:15.622Z,4.22
2022-11-24T01:04:42.079Z,4.27
2022-11-24T01:07:08.705Z,4.88
2022-11-24T01:09:35.148Z,4.13
2022-11-24T01:12:01.605Z,4.78
2022-11-24T01:14:28.659Z,4.57
2022-11-24T01:16:55.268Z,4.18
2022-11-24T01:19:21.729Z,5.17
2022-11-24T01:21:48.268Z,3.67
2022-11-24T01:24:14.785Z,4.13
2022-11-24T01:26:42.080Z,3.97
2022-11-24T01:29:11.722Z,3.90
2022-11-24T01:31:38.533Z,3.72
2022-11-24T01:34:04.937Z,4.18
2022-11-24T01:36:31.388Z,4.80
2022-11-24T01:38:57.805Z,3.90
2022-11-24T01:41:25.526Z,4.45
2022-11-24T01:43:53.502Z,3.80
2022-11-24T01:46:26.420Z,5.57
2022-11-24T01:49:02.813Z,4.75
2022-11-24T01:51:34.458Z,4.00
2022-11-24T01:54:06.102Z,3.78
2022-11-24T01:56:35.534Z,4.30
2022-11-24T01:59:05.304Z,5.55
2022-11-24T02:01:32.527Z,4.07
2022-11-24T02:04:02.557Z,3.70
2022-11-24T02:06:32.600Z,3.35
2022-11-24T02:09:02.835Z,2.67
2022-11-24T02:11:35.657Z,3.65
2022-11-24T02:14:03.963Z,4.20
2022-11-24T02:16:30.600Z,3.97
2022-11-24T02:18:57.297Z,4.33
2022-11-24T02:21:23.869Z,4.07
2022-11-24T02:24:12.178Z,3.80
2022-11-24T02:26:49.493Z,3.78
2022-11-24T02:29:16.125Z,3.33
2022-11-24T02:31:52.391Z,3.00
2022-11-24T02:34:18.843Z,4.13
2022-11-24T02:36:45.342Z,3.92
2022-11-24T02:39:13.195Z,3.40
2022-11-24T02:41:47.004Z,4.18
2022-11-24T02:44:15.988Z,4.18
2022-11-24T02:46:42.464Z,3.67
2022-11-24T02:49:08.941Z,3.03
2022-11-24T02:51:35.529Z,3.30
2022-11-24T02:54:01.957Z,2.77
2022-11-24T02:56:28.372Z,3.70
2022-11-24T02:58:54.801Z,2.97
2022-11-24T03:01:21.295Z,3.13
2022-11-24T03:03:47.814Z,3.03
2022-11-24T03:06:14.230Z,4.63
2022-11-24T03:08:40.628Z,3.20
2022-11-24T03:11:07.090Z,3.33
2022-11-24T03:13:33.566Z,3.45
2022-11-24T03:16:00.015Z,3.28
2022-11-24T03:18:26.489Z,3.17
2022-11-24T03:20:52.912Z,3.00
2022-11-24T03:23:19.739Z,3.47
2022-11-24T03:25:46.132Z,3.10
2022-11-24T03:28:12.554Z,2.92
2022-11-24T03:30:39.107Z,2.80
2022-11-24T03:33:07.130Z,4.60
2022-11-24T03:35:33.599Z,2.47
2022-11-24T03:38:00.064Z,3.97
2022-11-24T03:40:26.493Z,2.78
2022-11-24T03:42:52.915Z,4.00
2022-11-24T03:48:07.244Z,3.92
2022-11-24T03:50:33.676Z,3.83
2022-11-24T03:53:00.118Z,3.63
2022-11-24T03:55:26.558Z,3.95
2022-11-24T03:57:53.060Z,3.35
2022-11-24T04:00:19.713Z,2.88
2022-11-24T04:02:48.081Z,3.87
2022-11-24T04:05:15.139Z,4.10
2022-11-24T04:07:41.646Z,2.97
2022-11-24T04:10:08.921Z,2.88
2022-11-24T04:12:44.163Z,3.17
2022-11-24T04:15:16.813Z,2.90
2022-11-24T04:17:44.696Z,3.78
2022-11-24T04:20:12.117Z,3.88
2022-11-24T04:22:39.250Z,3.22
2022-11-24T04:25:06.322Z,3.97
2022-11-24T04:27:34.093Z,2.70
2022-11-24T04:30:00.684Z,3.00
2022-11-24T04:32:27.109Z,4.67
2022-11-24T04:34:53.524Z,4.07
2022-11-24T04:37:19.902Z,3.70
2022-11-24T04:39:46.348Z,3.70
2022-11-24T04:42:13.116Z,3.85
2022-11-24T04:44:39.597Z,2.75
2022-11-24T04:47:05.989Z,5.03
2022-11-24T04:49:32.627Z,4.95
2022-11-24T04:51:59.026Z,3.40
2022-11-24T04:54:25.422Z,4.18
2022-11-24T04:56:52.753Z,5.65
2022-11-24T04:59:19.821Z,3.45
2022-11-24T05:01:47.082Z,4.47
2022-11-24T05:04:15.778Z,3.35
2022-11-24T05:06:42.602Z,3.55
2022-11-24T05:09:13.406Z,4.22
2022-11-24T05:11:39.788Z,2.92
2022-11-24T05:14:06.262Z,4.93
2022-11-24T05:16:32.764Z,5.32
2022-11-24T05:18:59.224Z,3.88
2022-11-24T05:21:25.804Z,4.70
2022-11-24T05:23:52.175Z,3.87
2022-11-24T05:26:18.626Z,4.93
2022-11-24T05:28:45.242Z,5.00
2022-11-24T05:31:11.684Z,3.67
2022-11-24T05:33:38.222Z,5.22
2022-11-24T05:36:06.400Z,5.63
2022-11-24T05:38:33.768Z,4.00
2022-11-24T05:41:05.284Z,4.15
2022-11-24T05:43:32.056Z,3.40
2022-11-24T05:46:00.284Z,3.67
2022-11-24T05:48:27.087Z,3.92
2022-11-24T05:50:55.899Z,3.42
2022-11-24T05:53:22.733Z,3.63
2022-11-24T05:55:49.213Z,3.83
2022-11-24T05:58:15.654Z,4.63
2022-11-24T06:00:42.121Z,3.42
2022-11-24T06:03:10.380Z,5.00
2022-11-24T06:05:36.907Z,4.90
2022-11-24T06:08:03.425Z,4.18
2022-11-24T06:10:30.212Z,4.65
2022-11-24T06:12:56.973Z,3.22
2022-11-24T06:15:23.764Z,3.17
2022-11-24T06:17:55.683Z,2.80
2022-11-24T06:20:24.383Z,2.95
2022-11-24T06:22:52.889Z,3.10
2022-11-24T06:25:19.356Z,2.65
2022-11-24T06:27:45.755Z,2.47
2022-11-24T06:30:13.079Z,2.72
2022-11-24T06:32:41.642Z,2.08
2022-11-24T06:35:11.459Z,2.05
2022-11-24T06:37:38.007Z,2.10
2022-11-24T06:40:06.195Z,2.57
2022-11-24T06:42:32.697Z,1.95
2022-11-24T06:45:00.253Z,2.15
2022-11-24T06:47:26.820Z,2.42
2022-11-24T06:49:53.600Z,2.25
2022-11-24T06:52:20.080Z,2.45
2022-11-24T06:54:46.487Z,2.28
2022-11-24T06:57:12.851Z,2.60
2022-11-24T06:59:39.277Z,2.45
2022-11-24T07:02:06.192Z,1.90
2022-11-24T07:04:33.134Z,2.25
2022-11-24T07:06:59.828Z,1.85
2022-11-24T07:09:26.230Z,2.35
2022-11-24T07:11:56.101Z,2.00
2022-11-24T07:14:22.580Z,2.53
2022-11-24T07:16:49.505Z,1.80
2022-11-24T07:19:20.157Z,2.53
2022-11-24T07:21:49.755Z,1.65
2022-11-24T07:24:16.198Z,2.10
2022-11-24T07:26:42.628Z,3.00
2022-11-24T07:29:09.289Z,1.80
2022-11-24T07:31:35.735Z,2.17
2022-11-24T07:34:02.175Z,2.05
2022-11-24T07:36:28.631Z,1.70
2022-11-24T07:38:55.134Z,1.80
2022-11-24T07:41:21.574Z,1.63
2022-11-24T07:43:48.739Z,2.10
2022-11-24T07:46:17.330Z,1.90
2022-11-24T07:48:44.237Z,1.92
2022-11-24T07:51:10.843Z,2.08
2022-11-24T07:53:38.046Z,2.50
2022-11-24T07:56:06.324Z,3.25
2022-11-24T07:58:35.233Z,2.83
2022-11-24T08:01:16.582Z,2.90
2022-11-24T08:03:44.809Z,3.20
2022-11-24T08:06:35.367Z,2.80
2022-11-24T08:08:59.096Z,3.17
2022-11-24T08:11:26.984Z,2.73
2022-11-24T08:13:53.453Z,2.67
2022-11-24T08:16:20.559Z,3.50
2022-11-24T08:18:51.777Z,3.03
2022-11-24T08:21:18.846Z,2.97
2022-11-24T08:23:45.479Z,4.00
2022-11-24T08:26:15.995Z,3.60
2022-11-24T08:28:42.989Z,3.72
2022-11-24T08:31:18.853Z,4.13
2022-11-24T08:33:45.453Z,4.97
2022-11-24T08:36:17.434Z,4.05
2022-11-24T08:38:49.390Z,4.53
2022-11-24T08:41:17.008Z,4.63
2022-11-24T08:43:43.557Z,4.00
2022-11-24T08:46:12.607Z,4.23
2022-11-24T08:48:39.494Z,4.40
2022-11-24T08:51:09.217Z,5.07
2022-11-24T08:53:35.761Z,4.53
2022-11-24T08:56:03.410Z,4.30
2022-11-24T08:58:30.603Z,4.75
2022-11-24T09:01:08.257Z,3.90
2022-11-24T09:03:35.561Z,5.07
2022-11-24T09:06:02.431Z,4.97
2022-11-24T09:08:32.093Z,5.68
2022-11-24T09:11:04.084Z,5.07
2022-11-24T09:13:30.553Z,5.50
2022-11-24T09:15:57.284Z,5.07
2022-11-24T09:18:28.864Z,6.35
2022-11-24T09:21:09.972Z,6.18
2022-11-24T09:23:36.864Z,5.72
2022-11-24T09:26:05.646Z,6.78
2022-11-24T09:28:32.110Z,5.90
2022-11-24T09:31:07.215Z,7.22
2022-11-24T09:33:34.808Z,7.88
2022-11-24T09:38:28.075Z,7.47
2022-11-24T09:40:57.976Z,7.55
2022-11-24T09:43:35.509Z,8.55
2022-11-24T09:46:27.734Z,7.80
2022-11-24T09:48:57.125Z,7.50
2022-11-24T09:51:28.736Z,7.90
2022-11-24T09:54:02.280Z,8.57
2022-11-24T09:56:32.498Z,7.95
2022-11-24T09:59:14.131Z,7.13
2022-11-24T10:01:43.055Z,7.22
2022-11-24T10:04:28.216Z,7.65
2022-11-24T10:07:07.927Z,7.88
2022-11-24T10:10:03.415Z,6.65
2022-11-24T10:13:15.224Z,7.25
2022-11-24T10:15:50.287Z,7.07
2022-11-24T10:18:37.563Z,6.45
2022-11-24T10:21:40.441Z,6.78
2022-11-24T10:24:15.608Z,5.82
2022-11-24T10:27:00.653Z,6.05
2022-11-24T10:29:37.309Z,5.38
2022-11-24T10:32:12.168Z,6.03
2022-11-24T10:34:43.454Z,5.65
2022-11-24T10:37:40.707Z,5.13
2022-11-24T10:40:41.028Z,5.50
2022-11-24T10:43:10.520Z,5.17
2022-11-24T10:45:39.380Z,4.40
2022-11-24T10:48:19.741Z,4.78
2022-11-24T10:50:46.227Z,4.68
2022-11-24T10:53:26.774Z,4.82
2022-11-24T10:55:56.214Z,4.60
2022-11-24T10:58:40.334Z,4.30
2022-11-24T11:01:12.897Z,3.70
2022-11-24T11:03:51.333Z,3.72
2022-11-24T11:06:23.747Z,4.82
2022-11-24T11:09:10.492Z,3.78
2022-11-24T11:11:39.231Z,3.88
2022-11-24T11:14:07.838Z,3.63
2022-11-24T11:16:45.173Z,4.35
2022-11-24T11:20:01.615Z,3.45
2022-11-24T11:22:31.832Z,3.40
2022-11-24T11:25:19.354Z,3.28
2022-11-24T11:27:46.210Z,2.95
2022-11-24T11:38:48.085Z,2.67
2022-11-24T11:41:21.745Z,2.90
2022-11-24T11:43:56.155Z,2.75
2022-11-24T11:46:25.390Z,3.08
2022-11-24T11:48:52.855Z,3.38
2022-11-24T11:51:40.512Z,2.83
2022-11-24T11:54:38.729Z,2.90
2022-11-24T11:57:16.834Z,3.50
2022-11-24T11:59:52.516Z,3.33
2022-11-24T12:02:22.036Z,3.13
2022-11-24T12:04:52.535Z,2.72
2022-11-24T12:07:28.174Z,2.92
2022-11-24T12:10:31.671Z,2.97
2022-11-24T12:13:04.270Z,2.92
2022-11-24T12:15:42.677Z,3.47
2022-11-24T12:21:40.376Z,3.13
2022-11-24T12:24:19.822Z,3.95
2022-11-24T12:26:54.866Z,2.95
2022-11-24T12:29:50.003Z,2.90
2022-11-24T12:32:38.852Z,2.95
2022-11-24T12:35:23.760Z,3.15
2022-11-24T12:38:15.714Z,3.28
2022-11-24T12:41:41.851Z,3.08
2022-11-24T12:44:36.788Z,2.95
2022-11-24T12:47:17.751Z,3.10
2022-11-24T12:49:44.052Z,3.40
2022-11-24T12:52:24.883Z,3.07
2022-11-24T12:54:51.329Z,3.13
2022-11-24T12:57:21.710Z,3.13
2022-11-24T13:00:13.582Z,2.97
2022-11-24T13:02:55.536Z,3.15
2022-11-24T13:05:46.688Z,3.55
2022-11-24T13:08:14.875Z,3.08
2022-11-24T13:10:58.032Z,3.13
2022-11-24T13:13:30.155Z,3.05
2022-11-24T13:16:28.455Z,3.67
2022-11-24T13:18:59.353Z,3.47
2022-11-24T13:21:41.415Z,3.30
2022-11-24T13:24:17.838Z,2.92
2022-11-24T13:29:37.465Z,2.97
2022-11-24T13:32:06.949Z,2.40
2022-11-24T13:34:39.678Z,3.67
2022-11-24T13:37:31.327Z,2.78
2022-11-24T13:40:22.485Z,2.92
2022-11-24T13:42:54.673Z,3.75
2022-11-24T13:45:39.702Z,2.83
2022-11-24T13:48:18.562Z,2.72
2022-11-24T13:50:51.474Z,3.33
2022-11-24T13:53:37.240Z,3.03
2022-11-24T13:56:12.692Z,3.28
2022-11-24T13:58:43.684Z,3.20
2022-11-24T14:01:25.484Z,2.58
2022-11-24T14:04:33.096Z,4.07
2022-11-24T14:07:09.092Z,3.78
2022-11-24T14:09:43.604Z,3.35
2022-11-24T14:12:20.187Z,3.00
2022-11-24T14:14:49.024Z,3.67
2022-11-24T14:17:28.087Z,3.90
2022-11-24T14:19:58.315Z,3.25
2022-11-24T14:22:31.973Z,3.08
2022-11-24T14:25:00.789Z,3.50
2022-11-24T14:27:31.808Z,3.50
2022-11-24T14:30:03.448Z,3.33
2022-11-24T14:32:29.968Z,2.80
2022-11-24T14:34:56.875Z,3.57
2022-11-24T14:37:23.614Z,4.18
2022-11-24T14:39:50.074Z,3.83
2022-11-24T14:42:22.890Z,3.13
2022-11-24T14:44:59.025Z,3.53
2022-11-24T14:47:37.066Z,3.30
2022-11-24T14:52:35.802Z,3.63
2022-11-24T14:55:21.384Z,2.83
2022-11-24T14:57:48.654Z,3.75
2022-11-24T15:00:20.513Z,3.27
2022-11-24T15:02:54.171Z,3.22
2022-11-24T15:05:23.045Z,3.58
2022-11-24T15:07:52.475Z,3.40
2022-11-24T15:10:33.481Z,3.20
2022-11-24T15:13:03.224Z,3.58
2022-11-24T15:15:36.152Z,4.28
2022-11-24T15:18:04.334Z,3.55
2022-11-24T15:20:44.392Z,3.80
2022-11-24T15:23:30.109Z,3.78
2022-11-24T15:26:16.762Z,3.28
2022-11-24T15:28:45.521Z,3.80
2022-11-24T15:31:13.796Z,3.80
2022-11-24T15:33:41.478Z,3.58
2022-11-24T15:36:08.092Z,3.28
2022-11-24T15:38:34.525Z,4.33
2022-11-24T15:41:01.739Z,3.55
2022-11-24T15:43:36.861Z,4.30
2022-11-24T15:46:04.725Z,2.92
2022-11-24T15:48:31.805Z,3.65
2022-11-24T15:51:18.004Z,2.95
2022-11-24T15:53:48.945Z,3.08
2022-11-24T15:56:23.388Z,3.20
2022-11-24T15:58:49.873Z,3.30
2022-11-24T16:01:16.322Z,3.65
2022-11-24T16:03:48.047Z,4.20
2022-11-24T16:06:23.750Z,3.85
2022-11-24T16:08:52.114Z,3.38
2022-11-24T16:11:18.677Z,5.65
2022-11-24T16:13:50.300Z,4.07
2022-11-24T16:16:19.037Z,4.25
2022-11-24T16:18:45.817Z,4.53
2022-11-24T16:21:12.336Z,4.10
2022-11-24T16:23:38.784Z,3.83
2022-11-24T16:26:05.729Z,4.03
2022-11-24T16:28:32.252Z,3.40
2022-11-24T16:30:58.685Z,4.43
2022-11-24T16:33:25.069Z,3.40
2022-11-24T16:35:51.447Z,4.18
2022-11-24T16:38:21.104Z,4.25
2022-11-24T16:40:56.277Z,3.75
2022-11-24T16:43:24.304Z,3.60
2022-11-24T16:46:18.012Z,3.60
2022-11-24T16:48:46.215Z,4.45
2022-11-24T16:51:13.652Z,4.32
2022-11-24T16:56:08.046Z,6.03
2022-11-24T16:58:37.598Z,6.57
2022-11-24T17:01:06.132Z,7.53
2022-11-24T17:03:33.595Z,7.45
2022-11-24T17:06:00.834Z,8.40
2022-11-24T17:08:30.986Z,7.43
2022-11-24T17:10:58.027Z,7.13
2022-11-24T17:13:24.592Z,6.35
2022-11-24T17:15:54.103Z,6.00
2022-11-24T17:18:25.399Z,6.13
2022-11-24T17:20:52.025Z,5.50
2022-11-24T17:23:19.657Z,5.40
2022-11-24T17:25:46.247Z,5.57
2022-11-24T17:28:12.728Z,5.40
2022-11-24T17:30:39.083Z,5.28
2022-11-24T17:33:05.832Z,5.25
2022-11-24T17:35:34.485Z,5.63
2022-11-24T17:38:01.518Z,7.95
2022-11-24T17:40:29.646Z,6.10
2022-11-24T17:43:00.279Z,5.10
2022-11-24T17:45:28.176Z,5.72
2022-11-24T17:47:54.965Z,6.30
2022-11-24T17:50:25.638Z,5.57
2022-11-24T17:52:53.155Z,6.90
2022-11-24T17:55:19.629Z,5.53
2022-11-24T17:57:46.009Z,5.22
2022-11-24T18:00:13.139Z,5.20
2022-11-24T18:02:39.655Z,4.97
2022-11-24T18:05:06.389Z,4.93
2022-11-24T18:07:35.341Z,5.20
2022-11-24T18:10:01.842Z,3.85
2022-11-24T18:12:28.238Z,5.45
2022-11-24T18:14:55.038Z,4.45
2022-11-24T18:17:21.456Z,4.32
2022-11-24T18:19:47.867Z,4.55
2022-11-24T18:22:14.224Z,4.75
2022-11-24T18:24:40.844Z,3.45
2022-11-24T18:27:07.376Z,3.97
2022-11-24T18:29:33.808Z,3.92
2022-11-24T18:32:00.309Z,4.72
2022-11-24T18:34:26.752Z,4.80
2022-11-24T18:36:53.258Z,8.20
2022-11-24T18:39:19.752Z,6.07
2022-11-24T18:41:47.109Z,5.45
2022-11-24T18:44:13.765Z,5.78
2022-11-24T18:46:40.294Z,4.73
2022-11-24T18:49:07.291Z,3.90
2022-11-24T18:51:34.272Z,4.07
2022-11-24T18:54:02.935Z,4.97
2022-11-24T18:56:29.498Z,3.63
2022-11-24T18:58:56.528Z,3.97
2022-11-24T19:01:25.663Z,3.90
2022-11-24T19:03:57.214Z,4.32
2022-11-24T19:06:28.455Z,3.65
2022-11-24T19:08:55.749Z,4.45
2022-11-24T19:11:35.241Z,4.57
2022-11-24T19:14:06.854Z,3.67
2022-11-24T19:16:34.639Z,4.10
2022-11-24T19:19:02.595Z,3.70
2022-11-24T19:21:34.734Z,4.30
2022-11-24T19:24:05.387Z,4.20
2022-11-24T19:26:34.929Z,4.38
2022-11-24T19:29:01.736Z,5.72
2022-11-24T19:31:28.278Z,5.23
2022-11-24T19:33:55.283Z,4.93
2022-11-24T19:36:22.786Z,4.43
2022-11-24T19:41:19.637Z,3.42
2022-11-24T19:43:49.752Z,3.63
2022-11-24T19:46:18.181Z,3.28
2022-11-24T19:48:48.652Z,3.88
2022-11-24T19:51:17.830Z,3.33
2022-11-24T19:53:45.171Z,3.92
2022-11-24T19:56:20.568Z,4.80
2022-11-24T19:58:48.719Z,8.88
2022-11-24T20:01:48.472Z,7.15
2022-11-24T20:04:16.318Z,6.75
2022-11-24T20:06:46.622Z,7.50
2022-11-24T20:09:15.619Z,6.05
2022-11-24T20:11:42.535Z,5.18
2022-11-24T20:14:13.271Z,4.30
2022-11-24T20:16:39.906Z,4.05
2022-11-24T20:19:10.184Z,3.80
2022-11-24T20:21:37.898Z,4.05
2022-11-24T20:24:10.929Z,4.13
2022-11-24T20:26:49.839Z,4.55
2022-11-24T20:29:16.694Z,3.97
2022-11-24T20:31:46.000Z,4.55
2022-11-24T20:34:12.821Z,4.15
2022-11-24T20:36:41.515Z,4.82
2022-11-24T20:39:12.200Z,5.22
2022-11-24T20:41:40.133Z,4.00
2022-11-24T20:44:08.680Z,3.58
2022-11-24T20:46:37.411Z,3.42
2022-11-24T20:49:05.346Z,4.20
2022-11-24T20:51:34.844Z,3.83
2022-11-24T20:54:04.564Z,3.90
2022-11-24T20:56:33.659Z,4.03
2022-11-24T20:59:00.197Z,3.83
2022-11-24T21:01:30.078Z,4.47
2022-11-24T21:03:58.697Z,4.38
2022-11-24T21:06:27.912Z,3.67
2022-11-24T21:08:58.981Z,3.95
2022-11-24T21:11:29.998Z,3.85
2022-11-24T21:13:56.627Z,4.68
2022-11-24T21:16:33.313Z,4.00
2022-11-24T21:19:02.609Z,4.43
2022-11-24T21:21:33.994Z,3.58
2022-11-24T21:24:01.834Z,3.88
2022-11-24T21:26:28.382Z,4.32
2022-11-24T21:28:54.928Z,5.53
2022-11-24T21:31:21.613Z,4.07
2022-11-24T21:33:50.407Z,4.90
2022-11-24T21:36:19.498Z,4.25
2022-11-24T21:38:57.292Z,5.03
2022-11-24T21:41:25.757Z,5.55
2022-11-24T21:43:53.095Z,4.88
2022-11-24T21:46:19.658Z,4.18
2022-11-24T21:48:46.113Z,4.63
2022-11-24T21:51:15.588Z,4.95
2022-11-24T21:53:43.271Z,4.07
2022-11-24T21:56:14.876Z,4.38
2022-11-24T21:58:56.084Z,5.32
2022-11-24T22:01:28.511Z,4.55
2022-11-24T22:03:55.439Z,5.20
2022-11-24T22:06:21.856Z,4.55
2022-11-24T22:08:49.018Z,4.78
2022-11-24T22:11:18.612Z,5.43
2022-11-24T22:13:45.482Z,4.72
2022-11-24T22:16:14.529Z,4.93
2022-11-24T22:18:42.789Z,3.63
2022-11-24T22:21:20.292Z,4.50
2022-11-24T22:23:51.157Z,4.20
2022-11-24T22:26:19.554Z,4.38
2022-11-24T22:28:46.239Z,4.60
2022-11-24T22:31:15.398Z,4.57
2022-11-24T22:33:42.083Z,4.88
2022-11-24T22:36:10.002Z,4.20
2022-11-24T22:38:37.233Z,4.75
2022-11-24T22:41:05.790Z,4.90
2022-11-24T22:43:33.791Z,4.80
2022-11-24T22:46:05.341Z,3.80
2022-11-24T22:48:33.275Z,5.05
2022-11-24T22:51:07.405Z,4.57
2022-11-24T22:53:34.087Z,4.07
2022-11-24T22:56:02.427Z,5.47
2022-11-24T22:58:30.012Z,4.80
2022-11-24T23:03:22.964Z,4.30
2022-11-24T23:05:49.416Z,3.95
2022-11-24T23:08:15.852Z,4.45
2022-11-24T23:10:42.255Z,5.15
2022-11-24T23:13:08.689Z,4.25
2022-11-24T23:15:35.063Z,4.32
2022-11-24T23:18:01.432Z,4.18
2022-11-24T23:20:27.866Z,4.20
2022-11-24T23:22:56.857Z,4.28
2022-11-24T23:25:23.267Z,4.47
2022-11-24T23:27:49.783Z,4.30
2022-11-24T23:30:16.278Z,3.95
2022-11-24T23:32:42.660Z,4.63
2022-11-24T23:35:13.592Z,4.03
2022-11-24T23:38:06.074Z,3.95
2022-11-24T23:40:28.199Z,3.80
2022-11-24T23:42:54.601Z,4.18
2022-11-24T23:45:21.009Z,3.63
2022-11-24T23:47:47.619Z,3.90
2022-11-24T23:50:14.086Z,4.00
2022-11-24T23:52:40.516Z,4.40
2022-11-24T23:55:07.316Z,3.95
2022-11-24T23:57:33.849Z,4.10
